sensor_id;sensor_type;location;lat;lon;timestamp;P1;durP1;ratioP1;P2;durP2;ratioP2
54271;SDS011;40184;53.362;5.216;2023-06-22T00:00:41;50.83;;;7.75;;
54271;SDS011;40184;53.362;5.216;2023-06-22T00:03:08;37.17;;;7.75;;
54271;SDS011;40184;53.362;5.216;2023-06-22T00:05:34;43.53;;;7.13;;
54271;SDS011;40184;53.362;5.216;2023-06-22T00:08:04;29.23;;;7.05;;
54271;SDS011;40184;53.362;5.216;2023-06-22T00:10:30;18.20;;;7.50;;
54271;SDS011;40184;53.362;5.216;2023-06-22T00:12:56;21.35;;;7.45;;
54271;SDS011;40184;53.362;5.216;2023-06-22T00:15:22;29.75;;;8.75;;
54271;SDS011;40184;53.362;5.216;2023-06-22T00:17:49;23.02;;;8.93;;
54271;SDS011;40184;53.362;5.216;2023-06-22T00:20:15;21.83;;;8.48;;
54271;SDS011;40184;53.362;5.216;2023-06-22T00:22:43;26.08;;;9.85;;
54271;SDS011;40184;53.362;5.216;2023-06-22T00:25:09;27.88;;;7.38;;
54271;SDS011;40184;53.362;5.216;2023-06-22T00:27:35;20.42;;;7.93;;
54271;SDS011;40184;53.362;5.216;2023-06-22T00:30:01;13.55;;;7.25;;
54271;SDS011;40184;53.362;5.216;2023-06-22T00:32:28;17.40;;;7.40;;
54271;SDS011;40184;53.362;5.216;2023-06-22T00:34:54;26.55;;;9.65;;
54271;SDS011;40184;53.362;5.216;2023-06-22T00:37:20;10.25;;;7.50;;
54271;SDS011;40184;53.362;5.216;2023-06-22T00:39:53;26.88;;;8.75;;
54271;SDS011;40184;53.362;5.216;2023-06-22T00:42:20;19.75;;;8.27;;
54271;SDS011;40184;53.362;5.216;2023-06-22T00:44:46;20.92;;;9.10;;
54271;SDS011;40184;53.362;5.216;2023-06-22T00:47:16;23.67;;;9.75;;
54271;SDS011;40184;53.362;5.216;2023-06-22T00:49:43;13.50;;;10.35;;
54271;SDS011;40184;53.362;5.216;2023-06-22T00:52:10;17.27;;;10.32;;
54271;SDS011;40184;53.362;5.216;2023-06-22T00:54:46;17.30;;;12.38;;
54271;SDS011;40184;53.362;5.216;2023-06-22T00:57:14;21.98;;;11.45;;
54271;SDS011;40184;53.362;5.216;2023-06-22T00:59:44;19.23;;;12.70;;
54271;SDS011;40184;53.362;5.216;2023-06-22T01:02:11;17.73;;;11.77;;
54271;SDS011;40184;53.362;5.216;2023-06-22T01:04:37;17.38;;;12.68;;
54271;SDS011;40184;53.362;5.216;2023-06-22T01:09:34;21.67;;;14.57;;
54271;SDS011;40184;53.362;5.216;2023-06-22T01:12:04;18.55;;;13.43;;
54271;SDS011;40184;53.362;5.216;2023-06-22T01:14:39;23.00;;;14.52;;
54271;SDS011;40184;53.362;5.216;2023-06-22T01:17:08;24.08;;;14.85;;
54271;SDS011;40184;53.362;5.216;2023-06-22T01:19:35;18.33;;;14.02;;
54271;SDS011;40184;53.362;5.216;2023-06-22T01:22:04;15.43;;;12.30;;
54271;SDS011;40184;53.362;5.216;2023-06-22T01:29:47;23.15;;;14.82;;
54271;SDS011;40184;53.362;5.216;2023-06-22T01:32:13;19.92;;;13.93;;
54271;SDS011;40184;53.362;5.216;2023-06-22T01:34:40;19.05;;;13.98;;
54271;SDS011;40184;53.362;5.216;2023-06-22T01:37:06;18.05;;;13.02;;
54271;SDS011;40184;53.362;5.216;2023-06-22T01:39:33;21.38;;;12.90;;
54271;SDS011;40184;53.362;5.216;2023-06-22T01:41:59;20.85;;;15.35;;
54271;SDS011;40184;53.362;5.216;2023-06-22T01:44:26;19.45;;;13.82;;
54271;SDS011;40184;53.362;5.216;2023-06-22T01:46:52;17.52;;;13.48;;
54271;SDS011;40184;53.362;5.216;2023-06-22T01:49:18;16.48;;;13.35;;
54271;SDS011;40184;53.362;5.216;2023-06-22T01:51:44;18.58;;;14.10;;
54271;SDS011;40184;53.362;5.216;2023-06-22T01:54:11;17.80;;;14.23;;
54271;SDS011;40184;53.362;5.216;2023-06-22T01:56:37;16.17;;;13.10;;
54271;SDS011;40184;53.362;5.216;2023-06-22T01:59:11;16.63;;;14.43;;
54271;SDS011;40184;53.362;5.216;2023-06-22T02:01:47;16.38;;;13.73;;
54271;SDS011;40184;53.362;5.216;2023-06-22T02:04:20;15.75;;;14.05;;
54271;SDS011;40184;53.362;5.216;2023-06-22T02:06:47;20.33;;;17.35;;
54271;SDS011;40184;53.362;5.216;2023-06-22T02:09:16;19.00;;;17.15;;
54271;SDS011;40184;53.362;5.216;2023-06-22T02:11:43;18.52;;;16.73;;
54271;SDS011;40184;53.362;5.216;2023-06-22T02:14:10;19.90;;;18.10;;
54271;SDS011;40184;53.362;5.216;2023-06-22T02:16:37;21.15;;;19.00;;
54271;SDS011;40184;53.362;5.216;2023-06-22T02:19:03;18.08;;;16.38;;
54271;SDS011;40184;53.362;5.216;2023-06-22T02:21:31;20.77;;;18.60;;
54271;SDS011;40184;53.362;5.216;2023-06-22T02:23:58;19.05;;;17.25;;
54271;SDS011;40184;53.362;5.216;2023-06-22T02:26:24;19.20;;;17.33;;
54271;SDS011;40184;53.362;5.216;2023-06-22T02:28:51;16.63;;;14.48;;
54271;SDS011;40184;53.362;5.216;2023-06-22T02:31:17;17.77;;;15.98;;
54271;SDS011;40184;53.362;5.216;2023-06-22T02:33:43;16.55;;;14.85;;
54271;SDS011;40184;53.362;5.216;2023-06-22T02:36:10;15.60;;;14.00;;
54271;SDS011;40184;53.362;5.216;2023-06-22T02:38:38;18.65;;;15.20;;
54271;SDS011;40184;53.362;5.216;2023-06-22T02:41:04;16.58;;;14.77;;
54271;SDS011;40184;53.362;5.216;2023-06-22T02:43:31;17.13;;;15.32;;
54271;SDS011;40184;53.362;5.216;2023-06-22T02:45:57;18.77;;;16.55;;
54271;SDS011;40184;53.362;5.216;2023-06-22T02:48:23;18.75;;;14.18;;
54271;SDS011;40184;53.362;5.216;2023-06-22T02:50:50;15.68;;;14.05;;
54271;SDS011;40184;53.362;5.216;2023-06-22T02:53:16;18.25;;;16.35;;
54271;SDS011;40184;53.362;5.216;2023-06-22T02:55:42;16.98;;;14.60;;
54271;SDS011;40184;53.362;5.216;2023-06-22T02:58:08;17.58;;;15.75;;
54271;SDS011;40184;53.362;5.216;2023-06-22T03:00:34;18.52;;;14.45;;
54271;SDS011;40184;53.362;5.216;2023-06-22T03:03:00;16.45;;;13.60;;
54271;SDS011;40184;53.362;5.216;2023-06-22T03:05:26;14.68;;;13.15;;
54271;SDS011;40184;53.362;5.216;2023-06-22T03:07:52;14.65;;;12.48;;
54271;SDS011;40184;53.362;5.216;2023-06-22T03:10:18;16.20;;;14.40;;
54271;SDS011;40184;53.362;5.216;2023-06-22T03:12:44;14.95;;;12.48;;
54271;SDS011;40184;53.362;5.216;2023-06-22T03:15:11;13.68;;;12.30;;
54271;SDS011;40184;53.362;5.216;2023-06-22T03:17:37;15.13;;;12.90;;
54271;SDS011;40184;53.362;5.216;2023-06-22T03:20:05;14.13;;;12.70;;
54271;SDS011;40184;53.362;5.216;2023-06-22T03:22:36;15.07;;;13.27;;
54271;SDS011;40184;53.362;5.216;2023-06-22T03:25:02;17.90;;;13.63;;
54271;SDS011;40184;53.362;5.216;2023-06-22T03:27:28;22.73;;;17.83;;
54271;SDS011;40184;53.362;5.216;2023-06-22T03:29:56;28.48;;;22.05;;
54271;SDS011;40184;53.362;5.216;2023-06-22T03:32:22;37.78;;;24.23;;
54271;SDS011;40184;53.362;5.216;2023-06-22T03:34:48;34.63;;;24.15;;
54271;SDS011;40184;53.362;5.216;2023-06-22T03:37:14;37.47;;;25.98;;
54271;SDS011;40184;53.362;5.216;2023-06-22T03:39:43;35.08;;;25.33;;
54271;SDS011;40184;53.362;5.216;2023-06-22T03:42:09;36.58;;;25.92;;
54271;SDS011;40184;53.362;5.216;2023-06-22T03:44:35;35.10;;;23.77;;
54271;SDS011;40184;53.362;5.216;2023-06-22T03:47:02;35.00;;;24.50;;
54271;SDS011;40184;53.362;5.216;2023-06-22T03:49:29;37.55;;;24.58;;
54271;SDS011;40184;53.362;5.216;2023-06-22T03:51:55;34.55;;;24.63;;
54271;SDS011;40184;53.362;5.216;2023-06-22T03:54:21;34.97;;;23.92;;
54271;SDS011;40184;53.362;5.216;2023-06-22T03:56:47;37.45;;;26.42;;
54271;SDS011;40184;53.362;5.216;2023-06-22T03:59:13;33.25;;;24.35;;
54271;SDS011;40184;53.362;5.216;2023-06-22T04:01:39;42.55;;;27.23;;
54271;SDS011;40184;53.362;5.216;2023-06-22T04:04:05;43.17;;;28.25;;
54271;SDS011;40184;53.362;5.216;2023-06-22T04:06:32;38.40;;;26.85;;
54271;SDS011;40184;53.362;5.216;2023-06-22T04:08:59;36.45;;;26.45;;
54271;SDS011;40184;53.362;5.216;2023-06-22T04:11:26;39.20;;;26.63;;
54271;SDS011;40184;53.362;5.216;2023-06-22T04:13:52;40.83;;;25.67;;
54271;SDS011;40184;53.362;5.216;2023-06-22T04:16:18;34.38;;;25.75;;
54271;SDS011;40184;53.362;5.216;2023-06-22T04:18:44;35.25;;;24.38;;
54271;SDS011;40184;53.362;5.216;2023-06-22T04:21:11;43.25;;;28.67;;
54271;SDS011;40184;53.362;5.216;2023-06-22T04:23:37;40.65;;;28.00;;
54271;SDS011;40184;53.362;5.216;2023-06-22T04:26:03;36.60;;;25.88;;
54271;SDS011;40184;53.362;5.216;2023-06-22T04:28:29;41.13;;;27.77;;
54271;SDS011;40184;53.362;5.216;2023-06-22T04:31:02;37.70;;;26.20;;
54271;SDS011;40184;53.362;5.216;2023-06-22T04:33:29;40.88;;;26.55;;
54271;SDS011;40184;53.362;5.216;2023-06-22T04:35:55;43.15;;;29.42;;
54271;SDS011;40184;53.362;5.216;2023-06-22T04:38:28;39.75;;;28.70;;
54271;SDS011;40184;53.362;5.216;2023-06-22T04:40:58;41.38;;;27.10;;
54271;SDS011;40184;53.362;5.216;2023-06-22T04:43:26;40.78;;;28.33;;
54271;SDS011;40184;53.362;5.216;2023-06-22T04:45:56;43.45;;;30.35;;
54271;SDS011;40184;53.362;5.216;2023-06-22T04:48:28;46.35;;;30.05;;
54271;SDS011;40184;53.362;5.216;2023-06-22T04:50:57;41.33;;;28.25;;
54271;SDS011;40184;53.362;5.216;2023-06-22T04:53:28;40.17;;;27.95;;
54271;SDS011;40184;53.362;5.216;2023-06-22T04:55:54;49.20;;;31.13;;
54271;SDS011;40184;53.362;5.216;2023-06-22T04:58:20;42.25;;;27.70;;
54271;SDS011;40184;53.362;5.216;2023-06-22T05:00:47;35.78;;;24.25;;
54271;SDS011;40184;53.362;5.216;2023-06-22T05:03:16;34.03;;;22.50;;
54271;SDS011;40184;53.362;5.216;2023-06-22T05:05:43;33.22;;;22.27;;
54271;SDS011;40184;53.362;5.216;2023-06-22T05:08:09;34.42;;;23.45;;
54271;SDS011;40184;53.362;5.216;2023-06-22T05:10:35;35.90;;;23.90;;
54271;SDS011;40184;53.362;5.216;2023-06-22T05:13:02;31.50;;;23.17;;
54271;SDS011;40184;53.362;5.216;2023-06-22T05:15:28;35.38;;;22.23;;
54271;SDS011;40184;53.362;5.216;2023-06-22T05:17:55;35.17;;;22.58;;
54271;SDS011;40184;53.362;5.216;2023-06-22T05:20:23;30.33;;;22.05;;
54271;SDS011;40184;53.362;5.216;2023-06-22T05:22:49;31.95;;;22.23;;
54271;SDS011;40184;53.362;5.216;2023-06-22T05:25:15;30.33;;;20.85;;
54271;SDS011;40184;53.362;5.216;2023-06-22T05:27:41;30.10;;;20.58;;
54271;SDS011;40184;53.362;5.216;2023-06-22T05:30:09;30.55;;;21.80;;
54271;SDS011;40184;53.362;5.216;2023-06-22T05:32:36;28.77;;;22.17;;
54271;SDS011;40184;53.362;5.216;2023-06-22T05:35:03;27.60;;;21.63;;
54271;SDS011;40184;53.362;5.216;2023-06-22T05:37:29;27.40;;;20.90;;
54271;SDS011;40184;53.362;5.216;2023-06-22T05:39:55;28.30;;;20.73;;
54271;SDS011;40184;53.362;5.216;2023-06-22T05:42:22;28.80;;;20.63;;
54271;SDS011;40184;53.362;5.216;2023-06-22T05:44:50;31.10;;;22.55;;
54271;SDS011;40184;53.362;5.216;2023-06-22T05:47:16;28.92;;;20.02;;
54271;SDS011;40184;53.362;5.216;2023-06-22T05:49:42;27.08;;;20.38;;
54271;SDS011;40184;53.362;5.216;2023-06-22T05:52:08;23.95;;;18.58;;
54271;SDS011;40184;53.362;5.216;2023-06-22T05:54:35;21.20;;;17.58;;
54271;SDS011;40184;53.362;5.216;2023-06-22T05:57:01;26.02;;;18.38;;
54271;SDS011;40184;53.362;5.216;2023-06-22T05:59:27;25.98;;;17.58;;
54271;SDS011;40184;53.362;5.216;2023-06-22T06:01:53;25.17;;;19.45;;
54271;SDS011;40184;53.362;5.216;2023-06-22T06:04:19;28.98;;;20.88;;
54271;SDS011;40184;53.362;5.216;2023-06-22T06:06:45;25.92;;;19.42;;
54271;SDS011;40184;53.362;5.216;2023-06-22T06:09:14;26.90;;;20.02;;
54271;SDS011;40184;53.362;5.216;2023-06-22T06:11:40;27.30;;;20.13;;
54271;SDS011;40184;53.362;5.216;2023-06-22T06:14:07;31.08;;;21.15;;
54271;SDS011;40184;53.362;5.216;2023-06-22T06:16:33;28.13;;;19.90;;
54271;SDS011;40184;53.362;5.216;2023-06-22T06:18:59;28.23;;;21.90;;
54271;SDS011;40184;53.362;5.216;2023-06-22T06:21:25;27.85;;;20.58;;
54271;SDS011;40184;53.362;5.216;2023-06-22T06:23:51;26.30;;;20.33;;
54271;SDS011;40184;53.362;5.216;2023-06-22T06:26:18;26.77;;;19.98;;
54271;SDS011;40184;53.362;5.216;2023-06-22T06:28:54;22.65;;;19.13;;
54271;SDS011;40184;53.362;5.216;2023-06-22T06:31:21;27.60;;;19.92;;
54271;SDS011;40184;53.362;5.216;2023-06-22T06:33:48;25.20;;;18.90;;
54271;SDS011;40184;53.362;5.216;2023-06-22T06:36:14;24.13;;;17.88;;
54271;SDS011;40184;53.362;5.216;2023-06-22T06:38:41;22.02;;;17.55;;
54271;SDS011;40184;53.362;5.216;2023-06-22T06:41:07;24.70;;;18.27;;
54271;SDS011;40184;53.362;5.216;2023-06-22T06:43:33;21.63;;;19.02;;
54271;SDS011;40184;53.362;5.216;2023-06-22T06:45:59;27.17;;;19.15;;
54271;SDS011;40184;53.362;5.216;2023-06-22T06:48:25;24.83;;;19.38;;
54271;SDS011;40184;53.362;5.216;2023-06-22T06:50:51;27.90;;;20.30;;
54271;SDS011;40184;53.362;5.216;2023-06-22T06:53:18;24.98;;;20.70;;
54271;SDS011;40184;53.362;5.216;2023-06-22T06:55:44;27.08;;;19.95;;
54271;SDS011;40184;53.362;5.216;2023-06-22T06:58:10;31.00;;;20.85;;
54271;SDS011;40184;53.362;5.216;2023-06-22T07:00:38;26.75;;;20.67;;
54271;SDS011;40184;53.362;5.216;2023-06-22T07:03:04;24.63;;;19.10;;
54271;SDS011;40184;53.362;5.216;2023-06-22T07:05:32;24.55;;;17.92;;
54271;SDS011;40184;53.362;5.216;2023-06-22T07:07:58;20.60;;;18.13;;
54271;SDS011;40184;53.362;5.216;2023-06-22T07:10:24;23.48;;;18.85;;
54271;SDS011;40184;53.362;5.216;2023-06-22T07:12:50;26.83;;;18.50;;
54271;SDS011;40184;53.362;5.216;2023-06-22T07:15:16;20.63;;;18.42;;
54271;SDS011;40184;53.362;5.216;2023-06-22T07:17:43;26.50;;;19.55;;
54271;SDS011;40184;53.362;5.216;2023-06-22T07:20:09;29.05;;;20.58;;
54271;SDS011;40184;53.362;5.216;2023-06-22T07:22:40;25.00;;;17.88;;
54271;SDS011;40184;53.362;5.216;2023-06-22T07:25:06;19.70;;;16.52;;
54271;SDS011;40184;53.362;5.216;2023-06-22T07:27:39;23.65;;;17.63;;
54271;SDS011;40184;53.362;5.216;2023-06-22T07:30:08;26.00;;;18.80;;
54271;SDS011;40184;53.362;5.216;2023-06-22T07:32:34;20.30;;;17.60;;
54271;SDS011;40184;53.362;5.216;2023-06-22T07:35:01;22.13;;;18.05;;
54271;SDS011;40184;53.362;5.216;2023-06-22T07:37:27;25.52;;;19.65;;
54271;SDS011;40184;53.362;5.216;2023-06-22T07:39:54;23.38;;;18.92;;
54271;SDS011;40184;53.362;5.216;2023-06-22T07:42:26;20.88;;;16.60;;
54271;SDS011;40184;53.362;5.216;2023-06-22T07:44:53;27.35;;;18.20;;
54271;SDS011;40184;53.362;5.216;2023-06-22T07:47:20;20.75;;;16.92;;
54271;SDS011;40184;53.362;5.216;2023-06-22T07:49:50;20.50;;;16.50;;
54271;SDS011;40184;53.362;5.216;2023-06-22T07:52:16;20.20;;;16.55;;
54271;SDS011;40184;53.362;5.216;2023-06-22T07:54:42;20.70;;;15.55;;
54271;SDS011;40184;53.362;5.216;2023-06-22T07:57:10;23.10;;;14.10;;
54271;SDS011;40184;53.362;5.216;2023-06-22T07:59:36;19.83;;;13.88;;
54271;SDS011;40184;53.362;5.216;2023-06-22T08:02:02;14.20;;;11.13;;
54271;SDS011;40184;53.362;5.216;2023-06-22T08:04:28;13.75;;;10.20;;
54271;SDS011;40184;53.362;5.216;2023-06-22T08:06:56;21.80;;;11.45;;
54271;SDS011;40184;53.362;5.216;2023-06-22T08:09:22;15.93;;;10.40;;
54271;SDS011;40184;53.362;5.216;2023-06-22T08:11:48;11.88;;;9.48;;
54271;SDS011;40184;53.362;5.216;2023-06-22T08:14:14;13.23;;;10.40;;
54271;SDS011;40184;53.362;5.216;2023-06-22T08:16:41;12.63;;;10.02;;
54271;SDS011;40184;53.362;5.216;2023-06-22T08:19:07;16.73;;;10.65;;
54271;SDS011;40184;53.362;5.216;2023-06-22T08:21:33;12.40;;;9.23;;
54271;SDS011;40184;53.362;5.216;2023-06-22T08:24:00;18.65;;;10.77;;
54271;SDS011;40184;53.362;5.216;2023-06-22T08:26:26;13.05;;;10.27;;
54271;SDS011;40184;53.362;5.216;2023-06-22T08:28:52;11.55;;;10.05;;
54271;SDS011;40184;53.362;5.216;2023-06-22T08:31:18;13.02;;;10.65;;
54271;SDS011;40184;53.362;5.216;2023-06-22T08:33:44;15.20;;;10.13;;
54271;SDS011;40184;53.362;5.216;2023-06-22T08:36:11;12.80;;;9.18;;
54271;SDS011;40184;53.362;5.216;2023-06-22T08:38:38;11.75;;;10.52;;
54271;SDS011;40184;53.362;5.216;2023-06-22T08:41:04;13.30;;;11.05;;
54271;SDS011;40184;53.362;5.216;2023-06-22T08:43:30;14.02;;;12.27;;
54271;SDS011;40184;53.362;5.216;2023-06-22T08:45:57;14.70;;;11.48;;
54271;SDS011;40184;53.362;5.216;2023-06-22T08:48:23;14.43;;;10.85;;
54271;SDS011;40184;53.362;5.216;2023-06-22T08:50:49;12.88;;;10.50;;
54271;SDS011;40184;53.362;5.216;2023-06-22T08:53:15;19.55;;;13.13;;
54271;SDS011;40184;53.362;5.216;2023-06-22T08:55:41;17.75;;;12.02;;
54271;SDS011;40184;53.362;5.216;2023-06-22T08:58:07;20.48;;;12.75;;
54271;SDS011;40184;53.362;5.216;2023-06-22T09:00:33;13.27;;;11.02;;
54271;SDS011;40184;53.362;5.216;2023-06-22T09:03:00;11.80;;;9.30;;
54271;SDS011;40184;53.362;5.216;2023-06-22T09:05:26;10.45;;;7.55;;
54271;SDS011;40184;53.362;5.216;2023-06-22T09:07:52;13.82;;;10.77;;
54271;SDS011;40184;53.362;5.216;2023-06-22T09:10:21;11.77;;;8.50;;
54271;SDS011;40184;53.362;5.216;2023-06-22T09:12:47;11.23;;;7.28;;
54271;SDS011;40184;53.362;5.216;2023-06-22T09:15:13;9.93;;;7.72;;
54271;SDS011;40184;53.362;5.216;2023-06-22T09:17:40;9.88;;;7.00;;
54271;SDS011;40184;53.362;5.216;2023-06-22T09:20:06;8.70;;;6.65;;
54271;SDS011;40184;53.362;5.216;2023-06-22T09:22:35;7.88;;;6.03;;
54271;SDS011;40184;53.362;5.216;2023-06-22T09:25:01;9.45;;;6.05;;
54271;SDS011;40184;53.362;5.216;2023-06-22T09:27:28;5.20;;;4.75;;
54271;SDS011;40184;53.362;5.216;2023-06-22T09:29:54;5.95;;;4.88;;
54271;SDS011;40184;53.362;5.216;2023-06-22T09:32:20;6.03;;;4.88;;
54271;SDS011;40184;53.362;5.216;2023-06-22T09:34:46;6.28;;;5.05;;
54271;SDS011;40184;53.362;5.216;2023-06-22T09:37:13;8.40;;;5.25;;
54271;SDS011;40184;53.362;5.216;2023-06-22T09:39:39;5.97;;;4.60;;
54271;SDS011;40184;53.362;5.216;2023-06-22T09:42:05;6.72;;;5.13;;
54271;SDS011;40184;53.362;5.216;2023-06-22T09:44:31;10.23;;;6.78;;
54271;SDS011;40184;53.362;5.216;2023-06-22T09:46:57;7.78;;;6.00;;
54271;SDS011;40184;53.362;5.216;2023-06-22T09:49:23;7.45;;;6.75;;
54271;SDS011;40184;53.362;5.216;2023-06-22T09:51:49;7.20;;;6.47;;
54271;SDS011;40184;53.362;5.216;2023-06-22T09:54:16;7.63;;;6.55;;
54271;SDS011;40184;53.362;5.216;2023-06-22T09:56:42;9.65;;;8.65;;
54271;SDS011;40184;53.362;5.216;2023-06-22T09:59:08;13.48;;;8.88;;
54271;SDS011;40184;53.362;5.216;2023-06-22T10:01:34;11.52;;;7.90;;
54271;SDS011;40184;53.362;5.216;2023-06-22T10:04:01;12.63;;;8.95;;
54271;SDS011;40184;53.362;5.216;2023-06-22T10:06:28;11.10;;;7.95;;
54271;SDS011;40184;53.362;5.216;2023-06-22T10:08:54;6.43;;;5.72;;
54271;SDS011;40184;53.362;5.216;2023-06-22T10:11:20;6.40;;;5.57;;
54271;SDS011;40184;53.362;5.216;2023-06-22T10:16:18;6.68;;;4.90;;
54271;SDS011;40184;53.362;5.216;2023-06-22T10:18:44;5.45;;;4.05;;
54271;SDS011;40184;53.362;5.216;2023-06-22T10:21:10;4.53;;;4.07;;
54271;SDS011;40184;53.362;5.216;2023-06-22T10:23:36;5.82;;;3.35;;
54271;SDS011;40184;53.362;5.216;2023-06-22T10:26:02;5.45;;;3.55;;
54271;SDS011;40184;53.362;5.216;2023-06-22T10:28:28;3.53;;;3.22;;
54271;SDS011;40184;53.362;5.216;2023-06-22T10:30:54;4.40;;;3.15;;
54271;SDS011;40184;53.362;5.216;2023-06-22T10:33:20;2.67;;;2.38;;
54271;SDS011;40184;53.362;5.216;2023-06-22T10:35:46;2.20;;;2.00;;
54271;SDS011;40184;53.362;5.216;2023-06-22T10:38:12;3.30;;;2.85;;
54271;SDS011;40184;53.362;5.216;2023-06-22T10:40:38;3.63;;;2.65;;
54271;SDS011;40184;53.362;5.216;2023-06-22T10:43:04;2.55;;;1.60;;
54271;SDS011;40184;53.362;5.216;2023-06-22T10:45:30;7.53;;;1.83;;
54271;SDS011;40184;53.362;5.216;2023-06-22T10:47:56;1.92;;;1.35;;
54271;SDS011;40184;53.362;5.216;2023-06-22T10:50:23;3.03;;;2.28;;
54271;SDS011;40184;53.362;5.216;2023-06-22T10:52:49;2.00;;;1.48;;
54271;SDS011;40184;53.362;5.216;2023-06-22T10:55:15;1.90;;;1.60;;
54271;SDS011;40184;53.362;5.216;2023-06-22T10:57:41;15.05;;;2.78;;
54271;SDS011;40184;53.362;5.216;2023-06-22T11:00:09;3.40;;;1.55;;
54271;SDS011;40184;53.362;5.216;2023-06-22T11:02:36;1.90;;;1.60;;
54271;SDS011;40184;53.362;5.216;2023-06-22T11:05:02;3.53;;;1.42;;
54271;SDS011;40184;53.362;5.216;2023-06-22T11:07:29;2.53;;;1.40;;
54271;SDS011;40184;53.362;5.216;2023-06-22T11:09:55;3.40;;;1.95;;
54271;SDS011;40184;53.362;5.216;2023-06-22T11:12:21;1.88;;;1.70;;
54271;SDS011;40184;53.362;5.216;2023-06-22T11:14:47;1.58;;;1.42;;
54271;SDS011;40184;53.362;5.216;2023-06-22T11:17:16;1.30;;;1.20;;
54271;SDS011;40184;53.362;5.216;2023-06-22T11:19:43;3.88;;;1.55;;
54271;SDS011;40184;53.362;5.216;2023-06-22T11:22:09;2.53;;;1.60;;
54271;SDS011;40184;53.362;5.216;2023-06-22T11:24:35;2.85;;;1.27;;
54271;SDS011;40184;53.362;5.216;2023-06-22T11:27:01;7.05;;;2.03;;
54271;SDS011;40184;53.362;5.216;2023-06-22T11:29:27;6.30;;;1.80;;
54271;SDS011;40184;53.362;5.216;2023-06-22T11:31:53;3.13;;;1.48;;
54271;SDS011;40184;53.362;5.216;2023-06-22T11:34:19;3.08;;;1.75;;
54271;SDS011;40184;53.362;5.216;2023-06-22T11:36:45;3.72;;;2.33;;
54271;SDS011;40184;53.362;5.216;2023-06-22T11:39:13;2.30;;;1.80;;
54271;SDS011;40184;53.362;5.216;2023-06-22T11:41:40;2.33;;;1.80;;
54271;SDS011;40184;53.362;5.216;2023-06-22T11:44:07;3.90;;;1.70;;
54271;SDS011;40184;53.362;5.216;2023-06-22T11:46:33;2.42;;;1.70;;
54271;SDS011;40184;53.362;5.216;2023-06-22T11:49:00;3.28;;;1.77;;
54271;SDS011;40184;53.362;5.216;2023-06-22T11:51:26;2.63;;;2.25;;
54271;SDS011;40184;53.362;5.216;2023-06-22T11:53:53;2.22;;;1.80;;
54271;SDS011;40184;53.362;5.216;2023-06-22T11:56:19;2.58;;;1.77;;
54271;SDS011;40184;53.362;5.216;2023-06-22T11:58:45;2.05;;;1.80;;
54271;SDS011;40184;53.362;5.216;2023-06-22T12:01:11;3.10;;;2.25;;
54271;SDS011;40184;53.362;5.216;2023-06-22T12:03:40;2.13;;;1.75;;
54271;SDS011;40184;53.362;5.216;2023-06-22T12:06:08;3.10;;;2.17;;
54271;SDS011;40184;53.362;5.216;2023-06-22T12:08:34;2.88;;;2.22;;
54271;SDS011;40184;53.362;5.216;2023-06-22T12:11:00;2.17;;;1.98;;
54271;SDS011;40184;53.362;5.216;2023-06-22T12:13:26;2.05;;;1.90;;
54271;SDS011;40184;53.362;5.216;2023-06-22T12:15:52;2.15;;;1.63;;
54271;SDS011;40184;53.362;5.216;2023-06-22T12:18:18;3.28;;;1.88;;
54271;SDS011;40184;53.362;5.216;2023-06-22T12:20:46;3.05;;;1.90;;
54271;SDS011;40184;53.362;5.216;2023-06-22T12:23:12;4.10;;;1.75;;
54271;SDS011;40184;53.362;5.216;2023-06-22T12:25:38;3.25;;;1.70;;
54271;SDS011;40184;53.362;5.216;2023-06-22T12:28:05;3.17;;;1.90;;
54271;SDS011;40184;53.362;5.216;2023-06-22T12:30:32;4.43;;;1.80;;
54271;SDS011;40184;53.362;5.216;2023-06-22T12:32:58;1.95;;;1.38;;
54271;SDS011;40184;53.362;5.216;2023-06-22T12:35:24;3.70;;;1.20;;
54271;SDS011;40184;53.362;5.216;2023-06-22T12:37:50;2.15;;;1.60;;
54271;SDS011;40184;53.362;5.216;2023-06-22T12:40:16;1.58;;;1.27;;
54271;SDS011;40184;53.362;5.216;2023-06-22T12:42:44;3.55;;;1.60;;
54271;SDS011;40184;53.362;5.216;2023-06-22T12:45:10;1.60;;;1.27;;
54271;SDS011;40184;53.362;5.216;2023-06-22T12:47:36;2.67;;;1.50;;
54271;SDS011;40184;53.362;5.216;2023-06-22T12:50:02;1.52;;;1.20;;
54271;SDS011;40184;53.362;5.216;2023-06-22T12:52:29;2.10;;;1.65;;
54271;SDS011;40184;53.362;5.216;2023-06-22T12:54:57;1.30;;;1.20;;
54271;SDS011;40184;53.362;5.216;2023-06-22T12:57:23;1.48;;;1.38;;
54271;SDS011;40184;53.362;5.216;2023-06-22T12:59:50;1.13;;;1.00;;
54271;SDS011;40184;53.362;5.216;2023-06-22T13:02:16;1.48;;;1.33;;
54271;SDS011;40184;53.362;5.216;2023-06-22T13:04:42;2.55;;;1.88;;
54271;SDS011;40184;53.362;5.216;2023-06-22T13:07:09;1.80;;;1.70;;
54271;SDS011;40184;53.362;5.216;2023-06-22T13:09:36;2.22;;;1.95;;
54271;SDS011;40184;53.362;5.216;2023-06-22T13:12:02;3.83;;;1.75;;
54271;SDS011;40184;53.362;5.216;2023-06-22T13:14:28;4.38;;;1.88;;
54271;SDS011;40184;53.362;5.216;2023-06-22T13:16:54;3.13;;;1.83;;
54271;SDS011;40184;53.362;5.216;2023-06-22T13:19:20;1.55;;;1.45;;
54271;SDS011;40184;53.362;5.216;2023-06-22T13:21:46;1.90;;;1.73;;
54271;SDS011;40184;53.362;5.216;2023-06-22T13:24:12;3.47;;;1.88;;
54271;SDS011;40184;53.362;5.216;2023-06-22T13:26:39;2.38;;;1.65;;
54271;SDS011;40184;53.362;5.216;2023-06-22T13:29:05;2.63;;;1.80;;
54271;SDS011;40184;53.362;5.216;2023-06-22T13:31:31;2.85;;;1.90;;
54271;SDS011;40184;53.362;5.216;2023-06-22T13:33:57;2.22;;;1.70;;
54271;SDS011;40184;53.362;5.216;2023-06-22T13:36:23;2.30;;;1.98;;
54271;SDS011;40184;53.362;5.216;2023-06-22T13:38:49;3.78;;;2.10;;
54271;SDS011;40184;53.362;5.216;2023-06-22T13:41:15;2.25;;;1.88;;
54271;SDS011;40184;53.362;5.216;2023-06-22T13:43:41;3.60;;;2.25;;
54271;SDS011;40184;53.362;5.216;2023-06-22T13:46:07;2.28;;;1.90;;
54271;SDS011;40184;53.362;5.216;2023-06-22T13:48:33;6.80;;;2.22;;
54271;SDS011;40184;53.362;5.216;2023-06-22T13:50:59;4.15;;;2.15;;
54271;SDS011;40184;53.362;5.216;2023-06-22T13:53:25;3.38;;;2.58;;
54271;SDS011;40184;53.362;5.216;2023-06-22T13:55:51;3.80;;;2.60;;
54271;SDS011;40184;53.362;5.216;2023-06-22T13:58:17;4.63;;;2.00;;
54271;SDS011;40184;53.362;5.216;2023-06-22T14:00:46;5.35;;;1.58;;
54271;SDS011;40184;53.362;5.216;2023-06-22T14:03:14;3.42;;;1.90;;
54271;SDS011;40184;53.362;5.216;2023-06-22T14:05:42;2.33;;;1.77;;
54271;SDS011;40184;53.362;5.216;2023-06-22T14:08:08;2.75;;;1.90;;
54271;SDS011;40184;53.362;5.216;2023-06-22T14:10:34;4.82;;;2.42;;
54271;SDS011;40184;53.362;5.216;2023-06-22T14:13:00;1.77;;;1.63;;
54271;SDS011;40184;53.362;5.216;2023-06-22T14:15:26;2.40;;;1.85;;
54271;SDS011;40184;53.362;5.216;2023-06-22T14:17:52;3.28;;;1.98;;
54271;SDS011;40184;53.362;5.216;2023-06-22T14:20:18;1.98;;;1.77;;
54271;SDS011;40184;53.362;5.216;2023-06-22T14:22:44;2.08;;;1.83;;
54271;SDS011;40184;53.362;5.216;2023-06-22T14:25:11;1.88;;;1.77;;
54271;SDS011;40184;53.362;5.216;2023-06-22T14:27:37;2.72;;;1.85;;
54271;SDS011;40184;53.362;5.216;2023-06-22T14:30:03;4.07;;;2.10;;
54271;SDS011;40184;53.362;5.216;2023-06-22T14:32:29;2.58;;;1.83;;
54271;SDS011;40184;53.362;5.216;2023-06-22T14:34:55;6.88;;;1.67;;
54271;SDS011;40184;53.362;5.216;2023-06-22T14:37:21;2.75;;;1.90;;